CheckWX is a tool to help pilots better visualize weather data.  It is not intended as a substitute for an official pre-flight weather briefing.

19:55:12 UTC

HEBA TAF
Borg El Arab International Airport
Alexandria, Egypt
TAF HEBA 251700Z 2518/2624 31010KT CAVOK TEMPO 2600/2606 VRB03KT 3000 BR NSC

Jun-25@
18:00 UTC

Jun-25 @ 18:00 UTC

Jun-27@
00:00 UTC

Jun-27 @ 00:00 UTC

TAF HEBA 251700Z 2518/2624 31010KT CAVOK
Wind
  • 310° at 10 KTS
Conditions
No significant weather
Cloud Levels
  • No significant clouds

Jun-26@
00:00 UTC

Jun-26 @ 00:00 UTC

Jun-26@
06:00 UTC

Jun-26 @ 06:00 UTC

TEMPO 2600/2606 VRB03KT 3000 BR NSC

Temporary

Temporary Changes expected for less than half the time period

Wind
  • Variable at 3 KTS
Conditions
Mist
Cloud Levels
  • No significant clouds